Time;durP1;ratioP1;P1;durP2;ratioP2;P2;SDS_P1;SDS_P2;PMS_P1;PMS_P2;Temp;Humidity;BMP_temperature;BMP_pressure;BME280_temperature;BME280_humidity;BME280_pressure;Samples;Min_cycle;Max_cycle;Signal;HPM_P1;HPM_P2
2022/11/16 00:01:36;;;;;;;22.02;3.30;;;;;;;12.30;86.50;99522.03;5053377;28;20064;-65
2022/11/16 00:04:03;;;;;;;19.02;3.03;;;;;;;12.23;86.86;99530.13;5037580;28;20172;-58
2022/11/16 00:06:30;;;;;;;14.80;2.72;;;;;;;12.22;86.81;99529.31;5054439;28;20044;-58
2022/11/16 00:11:48;;;;;;;19.63;3.30;;;;;;;12.21;86.76;99524.13;5053234;28;20044;-58
2022/11/16 00:14:16;;;;;;;16.77;2.53;;;;;;;12.26;87.03;99532.97;5037170;28;20045;-58
2022/11/16 00:16:44;;;;;;;17.70;2.72;;;;;;;11.99;87.13;99527.47;5051084;28;20092;-57
2022/11/16 00:19:12;;;;;;;17.88;2.88;;;;;;;12.07;87.61;99529.25;5055068;28;20396;-55
2022/11/16 00:21:39;;;;;;;19.02;2.97;;;;;;;12.19;87.45;99535.53;5054505;28;20053;-58
2022/11/16 00:24:08;;;;;;;16.58;3.78;;;;;;;12.01;87.69;99533.44;5053468;28;20060;-66
2022/11/16 00:26:35;;;;;;;18.95;3.05;;;;;;;12.06;87.57;99536.75;5042890;28;20054;-67
2022/11/16 00:29:03;;;;;;;14.48;3.08;;;;;;;11.87;87.86;99522.78;5048564;28;20068;-59
2022/11/16 00:31:30;;;;;;;17.85;3.63;;;;;;;11.80;88.74;99528.09;5036074;28;20064;-59
2022/11/16 00:33:57;;;;;;;19.52;2.70;;;;;;;11.90;88.37;99526.81;5054693;28;20056;-66
2022/11/16 00:36:24;;;;;;;13.57;2.28;;;;;;;11.94;88.37;99528.50;5036168;28;20391;-66
2022/11/16 00:38:52;;;;;;;18.38;2.78;;;;;;;11.91;88.47;99528.41;5054839;28;20074;-66
2022/11/16 00:41:20;;;;;;;20.52;2.47;;;;;;;11.96;88.35;99519.91;5054551;28;20071;-66
2022/11/16 00:43:47;;;;;;;17.13;2.95;;;;;;;12.03;87.79;99520.09;5054467;28;20428;-66
2022/11/16 00:46:15;;;;;;;17.33;2.83;;;;;;;11.87;88.21;99524.75;5052688;28;20733;-59
2022/11/16 00:48:42;;;;;;;22.48;3.03;;;;;;;11.86;88.23;99525.91;5033926;28;20049;-66
2022/11/16 00:51:09;;;;;;;13.77;2.65;;;;;;;11.73;88.65;99527.09;5041082;28;20045;-67
2022/11/16 00:53:37;;;;;;;14.38;2.67;;;;;;;11.86;88.70;99520.38;5053553;28;20439;-66
2022/11/16 00:56:05;;;;;;;19.10;3.28;;;;;;;11.74;87.94;99521.25;5047274;28;20037;-60
2022/11/16 00:58:38;;;;;;;25.17;2.97;;;;;;;11.72;88.52;99520.78;5033558;28;20053;-60
2022/11/16 01:01:09;;;;;;;18.00;2.60;;;;;;;11.95;88.02;99526.56;5040346;28;20381;-59
2022/11/16 01:03:37;;;;;;;17.63;3.95;;;;;;;11.91;87.94;99534.75;5036374;28;20056;-58
2022/11/16 01:06:06;;;;;;;17.20;3.22;;;;;;;11.85;87.19;99540.84;5053037;28;20048;-59
2022/11/16 01:08:35;;;;;;;18.10;3.40;;;;;;;11.99;87.39;99536.56;5053917;28;20060;-58
2022/11/16 01:13:50;;;;;;;18.90;3.00;;;;;;;12.01;87.47;99525.16;5052983;28;20061;-59
2022/11/16 01:16:19;;;;;;;23.13;2.67;;;;;;;11.89;87.83;99523.25;5053124;28;20045;-59
2022/11/16 01:18:48;;;;;;;12.40;2.35;;;;;;;11.71;88.40;99529.41;5053017;28;20053;-59
2022/11/16 01:21:16;;;;;;;9.23;2.10;;;;;;;11.80;88.43;99522.59;5056055;28;20044;-59
2022/11/16 01:23:43;;;;;;;16.13;3.15;;;;;;;11.73;88.99;99527.09;5057328;28;20045;-67
2022/11/16 01:26:11;;;;;;;18.95;3.53;;;;;;;11.90;88.26;99522.09;5049964;28;20052;-66
2022/11/16 01:28:40;;;;;;;20.80;3.08;;;;;;;11.89;87.97;99526.00;5047639;28;20048;-66
2022/11/16 01:31:09;;;;;;;16.58;3.80;;;;;;;11.93;87.54;99531.63;5055881;28;20056;-66
2022/11/16 01:33:37;;;;;;;15.60;3.95;;;;;;;11.83;87.04;99523.84;5040977;28;20053;-60
2022/11/16 01:36:13;;;;;;;15.07;2.85;;;;;;;11.76;88.15;99531.91;5056175;28;20040;-59
2022/11/16 01:38:44;;;;;;;13.45;2.53;;;;;;;11.92;87.77;99530.03;5040787;28;20053;-58
2022/11/16 01:41:14;;;;;;;19.95;2.92;;;;;;;12.03;86.59;99533.91;5055937;28;20045;-60
2022/11/16 01:43:54;;;;;;;14.25;2.50;;;;;;;11.91;86.71;99533.91;5040390;28;20063;-67
2022/11/16 01:46:25;;;;;;;12.57;2.33;;;;;;;12.02;86.60;99532.28;5022249;28;20044;-67
2022/11/16 01:49:02;;;;;;;13.48;2.58;;;;;;;11.83;86.44;99532.13;5040501;28;20064;-66
2022/11/16 01:51:31;;;;;;;19.30;2.90;;;;;;;11.85;86.42;99529.81;5056077;28;20060;-58
2022/11/16 01:54:02;;;;;;;17.65;2.28;;;;;;;11.96;86.11;99528.97;5057904;28;20048;-58
2022/11/16 01:56:31;;;;;;;11.77;2.70;;;;;;;11.97;85.69;99516.78;5047227;28;20057;-59
2022/11/16 01:59:08;;;;;;;13.13;2.80;;;;;;;11.98;85.55;99517.56;5041352;28;20050;-57
2022/11/16 02:01:35;;;;;;;16.35;2.92;;;;;;;12.08;85.09;99519.84;5031095;28;20524;-58
2022/11/16 02:04:04;;;;;;;11.48;3.53;;;;;;;11.93;85.41;99521.41;5040256;28;20053;-60
2022/11/16 02:06:42;;;;;;;24.48;3.03;;;;;;;11.78;85.58;99519.41;5055610;28;20045;-56
2022/11/16 02:12:43;;;;;;;16.95;2.53;;;;;;;11.69;86.03;99520.69;5056254;28;20052;-56
2022/11/16 02:15:42;;;;;;;15.48;2.47;;;;;;;11.50;86.66;99524.03;5035963;28;20045;-58
2022/11/16 02:18:34;;;;;;;19.02;2.70;;;;;;;11.51;86.89;99513.78;5042519;28;20095;-58
2022/11/16 02:21:11;;;;;;;14.40;2.70;;;;;;;11.40;87.05;99512.69;5039453;28;20048;-59
2022/11/16 02:23:55;;;;;;;11.43;2.50;;;;;;;11.52;87.01;99509.91;5056338;28;20049;-57
2022/11/16 02:26:38;;;;;;;15.75;2.15;;;;;;;11.43;87.18;99521.06;5045885;28;20052;-57
2022/11/16 02:29:23;;;;;;;13.65;2.38;;;;;;;11.40;87.28;99515.44;5050053;28;20041;-57
2022/11/16 02:31:58;;;;;;;16.80;2.13;;;;;;;11.51;86.70;99519.31;5034855;28;20060;-59
2022/11/16 02:34:30;;;;;;;14.20;2.05;;;;;;;11.41;86.51;99519.78;5036070;28;20061;-66
2022/11/16 02:36:59;;;;;;;13.60;2.78;;;;;;;11.43;86.31;99515.56;5041914;28;20045;-65
2022/11/16 02:39:28;;;;;;;15.23;1.90;;;;;;;11.43;86.54;99512.78;5038326;28;20450;-65
2022/11/16 02:41:57;;;;;;;18.15;3.00;;;;;;;11.28;86.61;99514.31;5040942;28;20335;-65
2022/11/16 02:44:33;;;;;;;;;;;;;;;11.32;86.38;99515.22;5003734;28;20053;-59
2022/11/16 02:47:04;;;;;;;10.55;2.25;;;;;;;11.27;86.66;99512.72;5067214;28;19936;-58
2022/11/16 02:49:38;;;;;;;15.20;2.47;;;;;;;11.20;85.99;99512.50;5045083;28;20053;-66
2022/11/16 02:52:06;;;;;;;18.08;2.95;;;;;;;11.18;86.34;99501.00;5038694;28;20083;-57
2022/11/16 02:54:33;;;;;;;7.32;1.65;;;;;;;11.43;85.24;99509.22;5053956;28;20067;-67
2022/11/16 02:57:04;;;;;;;11.77;2.05;;;;;;;11.22;85.20;99510.19;5037028;28;20080;-68
2022/11/16 02:59:39;;;;;;;16.27;1.95;;;;;;;11.22;84.93;99504.69;5036775;28;20380;-66
2022/11/16 03:02:33;;;;;;;13.05;2.22;;;;;;;11.28;84.54;99507.97;5051714;28;20049;-66
2022/11/16 03:05:10;;;;;;;11.95;1.98;;;;;;;11.22;84.48;99507.44;5037745;28;20052;-66
2022/11/16 03:07:55;;;;;;;15.70;2.10;;;;;;;11.30;84.63;99511.19;5039497;28;20050;-59
2022/11/16 03:13:12;;;;;;;10.48;1.80;;;;;;;11.43;83.83;99498.19;5055310;28;20056;-58
2022/11/16 03:15:40;;;;;;;13.55;1.77;;;;;;;11.41;83.51;99500.50;5054518;28;20412;-59
2022/11/16 03:18:09;;;;;;;;;;;;;;;11.39;83.46;99489.81;5039274;28;20052;-58
2022/11/16 03:20:37;;;;;;;8.40;2.10;;;;;;;11.42;83.48;99491.09;5054620;28;20281;-58
2022/11/16 03:23:08;;;;;;;11.77;2.38;;;;;;;11.33;83.20;99494.78;5038304;28;20064;-59
2022/11/16 03:25:48;;;;;;;12.18;2.30;;;;;;;11.48;83.07;99486.91;5051347;28;20071;-59
2022/11/16 03:28:24;;;;;;;11.63;2.42;;;;;;;11.38;83.37;99481.91;5032038;28;20041;-58
2022/11/16 03:30:58;;;;;;;9.18;1.70;;;;;;;11.21;83.62;99481.00;5021265;28;20380;-66
2022/11/16 03:33:33;;;;;;;10.38;1.75;;;;;;;11.14;83.50;99483.53;5038451;28;20049;-67
2022/11/16 03:36:05;;;;;;;12.02;2.08;;;;;;;11.02;84.28;99486.31;5037079;28;20049;-66
2022/11/16 03:38:34;;;;;;;15.63;1.92;;;;;;;11.02;84.22;99480.81;5038301;28;20472;-66
2022/11/16 03:41:06;;;;;;;14.02;2.58;;;;;;;10.75;85.37;99477.97;5037723;28;20516;-66
2022/11/16 03:43:34;;;;;;;9.95;1.70;;;;;;;10.76;86.35;99474.84;5017430;28;20057;-67
2022/11/16 03:46:03;;;;;;;9.18;1.60;;;;;;;10.81;86.22;99480.13;5024136;28;20052;-66
2022/11/16 03:48:36;;;;;;;13.23;1.67;;;;;;;10.78;86.49;99474.50;5054573;28;20120;-66
2022/11/16 03:51:09;;;;;;;14.68;2.67;;;;;;;10.81;86.64;99466.38;5007239;28;20073;-66
2022/11/16 03:53:38;;;;;;;13.52;1.75;;;;;;;10.67;87.46;99463.16;5037487;28;20053;-56
2022/11/16 03:56:07;;;;;;;10.02;1.25;;;;;;;10.51;86.94;99466.94;5046590;28;20045;-58
2022/11/16 03:58:35;;;;;;;10.10;1.80;;;;;;;10.52;87.84;99461.09;5034239;28;20037;-58
2022/11/16 04:01:03;;;;;;;15.13;2.20;;;;;;;10.58;87.78;99453.41;5041071;28;20045;-65
2022/11/16 04:03:30;;;;;;;11.50;2.10;;;;;;;10.61;87.69;99447.22;5055763;28;20064;-65
2022/11/16 04:25:42;;;;;;;10.23;1.75;;;;;;;10.46;88.11;99447.91;5038466;28;20053;-65
2022/11/16 04:28:16;;;;;;;12.23;1.60;;;;;;;10.43;88.96;99451.31;5040852;28;20047;-66
2022/11/16 04:39:12;;;;;;;9.30;1.88;;;;;;;10.69;87.73;99438.03;5052108;28;20045;-59
2022/11/16 04:47:05;;;;;;;12.85;1.95;;;;;;;10.57;89.05;99436.09;5053775;28;20053;-67
2022/11/16 04:47:17;;;;;;;15.48;2.17;;;;;;;10.56;89.65;99439.19;5039397;28;20052;-66
2022/11/16 04:49:45;;;;;;;9.30;2.00;;;;;;;10.74;88.89;99438.59;5037515;28;20053;-67
2022/11/16 04:52:13;;;;;;;8.93;1.83;;;;;;;10.96;88.09;99438.13;5054535;28;20059;-60
2022/11/16 04:54:41;;;;;;;8.43;2.28;;;;;;;11.01;87.69;99435.13;5053739;28;20056;-58
2022/11/16 04:57:09;;;;;;;13.05;2.30;;;;;;;10.92;88.13;99433.66;5042769;28;20407;-66
2022/11/16 04:59:36;;;;;;;13.05;2.25;;;;;;;11.01;87.89;99437.88;5033970;28;20046;-67
2022/11/16 05:02:07;;;;;;;10.52;2.00;;;;;;;11.02;87.91;99433.16;5048614;28;20051;-67
2022/11/16 05:04:41;;;;;;;9.05;1.77;;;;;;;10.91;88.06;99432.06;5053521;28;20049;-67
2022/11/16 05:07:11;;;;;;;12.57;1.90;;;;;;;11.06;88.02;99436.84;5052578;28;20041;-67
2022/11/16 05:09:45;;;;;;;10.85;1.65;;;;;;;11.15;87.64;99434.75;5032946;28;20408;-65
2022/11/16 05:12:18;;;;;;;10.50;2.03;;;;;;;11.01;88.19;99437.88;5048962;28;20052;-66
2022/11/16 05:14:49;;;;;;;9.35;1.95;;;;;;;11.04;88.31;99436.38;5037213;28;20079;-66
2022/11/16 05:17:22;;;;;;;12.70;2.33;;;;;;;11.01;88.69;99434.31;5052415;28;20072;-66
2022/11/16 05:22:48;;;;;;;16.92;2.60;;;;;;;11.01;88.85;99426.88;5040347;28;20061;-69
2022/11/16 05:25:16;;;;;;;9.38;2.25;;;;;;;11.10;88.99;99421.22;5032761;28;20519;-67
2022/11/16 05:27:48;;;;;;;17.75;2.83;;;;;;;11.12;88.47;99418.94;5034969;28;20528;-67
2022/11/16 05:30:19;;;;;;;8.75;2.08;;;;;;;11.15;88.55;99419.03;5053064;28;20053;-67
2022/11/16 05:32:49;;;;;;;12.93;2.38;;;;;;;11.18;88.22;99418.31;5053756;28;20060;-66
2022/11/16 05:35:22;;;;;;;11.38;2.10;;;;;;;11.37;87.68;99409.41;5053004;28;20049;-67
2022/11/16 05:37:49;;;;;;;15.98;2.63;;;;;;;11.19;87.89;99419.91;5036501;28;20056;-68
2022/11/16 05:40:19;;;;;;;11.23;2.10;;;;;;;11.15;88.63;99421.78;5036109;28;20040;-67
2022/11/16 05:42:57;;;;;;;11.43;2.08;;;;;;;11.36;87.63;99413.34;5052964;28;20068;-68
2022/11/16 05:45:34;;;;;;;10.93;2.40;;;;;;;11.33;87.18;99416.78;5036612;28;20063;-68
2022/11/16 05:48:03;;;;;;;14.18;2.40;;;;;;;11.38;87.33;99412.97;5053081;28;20061;-66
2022/11/16 05:50:31;;;;;;;13.82;2.00;;;;;;;11.37;87.36;99422.41;5019724;28;20060;-65
2022/11/16 05:53:13;;;;;;;13.82;2.58;;;;;;;11.38;87.61;99413.78;5038793;28;20459;-66
2022/11/16 05:55:41;;;;;;;11.70;2.17;;;;;;;11.48;87.31;99415.22;5051896;28;20057;-66
2022/11/16 05:58:08;;;;;;;12.05;2.35;;;;;;;11.50;86.90;99419.25;5033932;28;20052;-65
2022/11/16 06:00:36;;;;;;;13.27;2.90;;;;;;;11.44;86.93;99419.88;5036345;28;20076;-66
2022/11/16 06:03:04;;;;;;;13.00;2.55;;;;;;;11.43;87.35;99416.28;5052676;28;20053;-66
2022/11/16 06:05:35;;;;;;;15.73;3.08;;;;;;;11.34;87.54;99421.97;5052260;28;20051;-66
2022/11/16 06:08:08;;;;;;;17.65;2.55;;;;;;;11.43;87.57;99421.00;5038127;28;20072;-67
2022/11/16 06:10:35;;;;;;;10.10;2.33;;;;;;;11.31;88.39;99421.84;5055107;28;20064;-66
2022/11/16 06:13:04;;;;;;;18.23;3.58;;;;;;;11.34;87.99;99423.91;5056187;28;20049;-66
2022/11/16 06:15:37;;;;;;;9.68;2.40;;;;;;;11.31;88.10;99427.38;5038851;28;20057;-66
2022/11/16 06:18:06;;;;;;;13.38;2.38;;;;;;;11.34;88.36;99429.41;5039015;28;20407;-66
2022/11/16 06:20:33;;;;;;;12.48;2.53;;;;;;;11.25;88.60;99426.00;5055445;28;20053;-66
2022/11/16 06:23:02;;;;;;;13.90;2.20;;;;;;;11.33;88.76;99431.38;5039793;28;20513;-66
2022/11/16 06:25:30;;;;;;;10.70;2.28;;;;;;;11.38;88.63;99424.81;5037691;28;20063;-66
2022/11/16 06:27:58;;;;;;;16.95;2.63;;;;;;;11.11;89.15;99428.31;5044715;28;20051;-66
2022/11/16 06:30:32;;;;;;;12.55;3.08;;;;;;;11.17;89.70;99436.03;5040098;28;20056;-66
2022/11/16 06:33:00;;;;;;;16.02;2.58;;;;;;;11.32;89.12;99420.69;5039724;28;20158;-67
2022/11/16 06:35:28;;;;;;;12.10;2.30;;;;;;;11.23;89.17;99420.03;5038024;28;20527;-66
2022/11/16 06:37:56;;;;;;;12.32;2.63;;;;;;;11.20;89.06;99421.53;5055388;28;20515;-67
2022/11/16 06:40:24;;;;;;;13.80;2.60;;;;;;;11.28;89.18;99414.25;5055644;28;20044;-67
2022/11/16 06:42:52;;;;;;;18.25;2.78;;;;;;;11.24;88.62;99421.66;5055635;28;20412;-67
2022/11/16 06:45:20;;;;;;;10.27;2.40;;;;;;;11.32;88.46;99417.94;5038245;28;20056;-67
2022/11/16 06:47:54;;;;;;;15.60;2.65;;;;;;;11.13;88.92;99413.06;5055221;28;20492;-66
2022/11/16 06:50:23;;;;;;;13.75;2.33;;;;;;;11.08;89.83;99401.47;5054831;28;20052;-67
2022/11/16 06:52:52;;;;;;;13.98;3.40;;;;;;;11.18;89.10;99406.50;5055429;28;20049;-66
2022/11/16 06:55:21;;;;;;;18.63;3.22;;;;;;;11.15;89.59;99413.53;5051194;28;20042;-66
2022/11/16 06:57:49;;;;;;;15.13;2.53;;;;;;;10.99;89.61;99412.63;5038948;28;20141;-67
2022/11/16 07:00:17;;;;;;;13.80;2.67;;;;;;;11.15;90.28;99419.03;5035316;28;20049;-67
2022/11/16 07:02:46;;;;;;;13.48;2.63;;;;;;;10.97;89.92;99409.41;5040203;28;20045;-67
2022/11/16 07:05:16;;;;;;;15.35;2.78;;;;;;;11.10;90.17;99411.00;5034030;28;20147;-67
2022/11/16 07:07:45;;;;;;;19.98;3.22;;;;;;;10.99;90.07;99411.81;5039412;28;20060;-66
2022/11/16 07:10:12;;;;;;;15.07;3.15;;;;;;;10.93;90.72;99416.75;5052295;28;20052;-66
2022/11/16 07:12:41;;;;;;;15.70;3.13;;;;;;;10.87;91.32;99415.41;5055237;28;20488;-67
2022/11/16 07:15:10;;;;;;;14.98;2.95;;;;;;;11.12;91.37;99427.19;5055065;28;20053;-69
2022/11/16 07:17:41;;;;;;;14.88;3.22;;;;;;;11.30;90.66;99423.81;5043961;28;20054;-69
2022/11/16 07:20:10;;;;;;;10.70;3.10;;;;;;;11.50;89.98;99418.44;5038743;28;20385;-69
2022/11/16 07:22:39;;;;;;;18.50;3.42;;;;;;;11.52;89.08;99430.75;5037841;28;20048;-68
2022/11/16 07:25:10;;;;;;;16.08;3.38;;;;;;;11.62;89.63;99427.47;5050902;28;20041;-68
2022/11/16 07:27:38;;;;;;;15.75;3.47;;;;;;;11.58;88.86;99432.09;5040805;28;20045;-68
2022/11/16 07:30:06;;;;;;;18.00;3.67;;;;;;;11.56;88.95;99428.09;5042356;28;20428;-69
2022/11/16 07:32:43;;;;;;;15.40;3.30;;;;;;;11.74;88.67;99423.88;5045467;28;20053;-69
2022/11/16 07:35:23;;;;;;;16.77;3.80;;;;;;;11.56;89.39;99423.34;5043241;28;20056;-69
2022/11/16 07:37:50;;;;;;;19.98;3.25;;;;;;;11.50;90.37;99429.47;5045973;28;20040;-68
2022/11/16 07:40:19;;;;;;;16.40;2.42;;;;;;;11.66;91.17;99433.13;5049083;28;20045;-69
2022/11/16 07:42:46;;;;;;;18.05;3.33;;;;;;;11.57;90.42;99433.25;5045753;28;20049;-67
2022/11/16 07:45:32;;;;;;;13.32;3.17;;;;;;;11.55;90.02;99424.53;5045672;28;20048;-66
2022/11/16 07:48:05;;;;;;;15.52;3.20;;;;;;;11.77;90.45;99423.19;5031445;28;20513;-66
2022/11/16 07:51:13;;;;;;;15.85;3.58;;;;;;;11.84;88.97;99420.59;5046767;28;20045;-66
2022/11/16 07:53:46;;;;;;;14.32;3.38;;;;;;;11.95;89.01;99425.28;5042778;28;20060;-67
2022/11/16 07:56:13;;;;;;;18.83;3.75;;;;;;;12.03;88.45;99421.53;5041048;28;20053;-67
2022/11/16 07:58:44;;;;;;;20.50;4.10;;;;;;;12.12;88.29;99421.34;5045120;28;20045;-66
2022/11/16 08:01:14;;;;;;;14.40;3.42;;;;;;;11.91;87.95;99427.13;5038222;28;20053;-67
2022/11/16 08:06:26;;;;;;;23.92;3.80;;;;;;;12.21;87.05;99420.03;5046598;28;20060;-68
2022/11/16 08:08:54;;;;;;;;;;;;;;;12.13;87.36;99428.50;5033473;28;20414;-67
2022/11/16 08:11:25;;;;;;;19.17;3.42;;;;;;;12.08;87.79;99431.53;5042099;28;20404;-67
2022/11/16 08:13:52;;;;;;;15.25;3.25;;;;;;;12.12;87.95;99422.16;5037841;28;20041;-67
2022/11/16 08:16:21;;;;;;;16.02;3.78;;;;;;;12.03;88.75;99431.78;5037888;28;20056;-67
2022/11/16 08:18:54;;;;;;;13.68;2.97;;;;;;;12.18;88.45;99418.00;5040688;28;20056;-69
2022/11/16 08:21:22;;;;;;;16.50;4.63;;;;;;;12.56;87.57;99417.34;5044264;28;20053;-68
2022/11/16 08:23:49;;;;;;;23.25;5.97;;;;;;;12.54;86.98;99427.16;5041672;28;20049;-69
2022/11/16 08:26:24;;;;;;;19.50;4.38;;;;;;;12.66;86.27;99421.56;5036917;28;20068;-67
2022/11/16 08:28:57;;;;;;;17.85;3.25;;;;;;;12.77;86.09;99423.41;5025274;28;20045;-67
2022/11/16 08:31:29;;;;;;;22.55;4.28;;;;;;;12.73;85.89;99422.50;5067264;28;20053;-67
2022/11/16 08:34:07;;;;;;;14.23;3.58;;;;;;;12.83;85.92;99433.00;5024053;28;20053;-67
2022/11/16 08:36:37;;;;;;;25.42;5.10;;;;;;;12.87;85.64;99420.06;5036899;28;20049;-67
2022/11/16 08:39:05;;;;;;;22.25;4.93;;;;;;;12.80;85.16;99414.38;5044299;28;20060;-68
2022/11/16 08:41:34;;;;;;;19.00;5.70;;;;;;;12.63;85.74;99430.53;5035155;28;20065;-67
2022/11/16 08:44:02;;;;;;;15.70;3.60;;;;;;;12.65;86.28;99426.28;5045775;28;20641;-66
2022/11/16 08:46:31;;;;;;;14.98;3.20;;;;;;;12.76;86.13;99416.25;5043302;28;20488;-66
2022/11/16 08:49:08;;;;;;;16.23;3.70;;;;;;;12.64;86.29;99421.09;5039237;28;20399;-66
2022/11/16 08:51:35;;;;;;;20.08;4.30;;;;;;;12.79;85.92;99414.75;5022278;28;20056;-66
2022/11/16 08:54:05;;;;;;;33.10;4.65;;;;;;;12.88;86.13;99412.59;5034229;28;20046;-66
2022/11/16 08:56:35;;;;;;;16.73;3.00;;;;;;;13.05;85.59;99417.75;5016880;28;20057;-66
2022/11/16 08:59:03;;;;;;;22.52;4.03;;;;;;;13.07;85.43;99407.13;5005984;28;20064;-66
2022/11/16 09:01:31;;;;;;;22.85;3.40;;;;;;;13.13;84.96;99405.66;5028447;28;20058;-67
2022/11/16 09:03:59;;;;;;;15.10;3.00;;;;;;;13.28;85.05;99408.41;5041234;28;20437;-67
2022/11/16 09:06:27;;;;;;;18.30;3.15;;;;;;;13.45;84.68;99405.19;5038614;28;20532;-67
2022/11/16 09:08:55;;;;;;;17.30;3.40;;;;;;;13.33;84.65;99408.09;5014704;28;20072;-65
2022/11/16 09:11:23;;;;;;;20.92;4.00;;;;;;;13.37;84.36;99402.66;5035662;28;20053;-67
2022/11/16 09:13:53;;;;;;;23.98;4.40;;;;;;;13.42;84.59;99392.06;5039950;28;20055;-67
2022/11/16 09:16:22;;;;;;;24.10;3.90;;;;;;;13.42;83.58;99396.81;5030407;28;20056;-67
2022/11/16 09:18:50;;;;;;;23.55;5.68;;;;;;;13.41;83.56;99396.00;5049624;28;20057;-67
2022/11/16 09:21:22;;;;;;;19.30;4.72;;;;;;;13.50;83.05;99399.38;5050369;28;20060;-66
2022/11/16 09:23:51;;;;;;;19.70;4.57;;;;;;;13.45;83.14;99398.84;5050042;28;20049;-66
2022/11/16 09:26:21;;;;;;;20.42;4.65;;;;;;;13.67;83.01;99397.31;5007106;28;20061;-66
2022/11/16 09:28:54;;;;;;;18.50;3.72;;;;;;;13.72;82.03;99391.50;5043098;28;20045;-65
2022/11/16 09:31:21;;;;;;;18.60;3.47;;;;;;;13.55;82.38;99390.78;5040566;28;20500;-65
2022/11/16 09:33:50;;;;;;;14.07;3.72;;;;;;;13.57;82.18;99391.22;5034239;28;20499;-66
2022/11/16 09:36:19;;;;;;;17.00;3.70;;;;;;;13.66;82.53;99393.75;5036674;28;20061;-66
2022/11/16 09:38:48;;;;;;;16.00;3.33;;;;;;;13.44;82.72;99392.50;5041482;28;20057;-66
2022/11/16 09:41:46;;;;;;;26.08;4.28;;;;;;;13.55;83.26;99393.53;5053664;28;20582;-66
2022/11/16 09:44:41;;;;;;;15.55;2.95;;;;;;;13.58;82.96;99376.19;5046139;28;20551;-66
2022/11/16 09:47:20;;;;;;;17.55;4.13;;;;;;;13.41;83.14;99379.41;5046446;28;20052;-67
2022/11/16 09:49:52;;;;;;;26.02;10.82;;;;;;;13.50;83.56;99374.47;5041164;28;20053;-67
2022/11/16 09:52:38;;;;;;;20.27;6.88;;;;;;;13.58;83.17;99376.19;5039005;28;20050;-65
2022/11/16 09:55:34;;;;;;;18.95;3.15;;;;;;;13.77;82.80;99380.13;5030149;28;20037;-66
2022/11/16 09:58:10;;;;;;;18.80;3.33;;;;;;;13.89;82.39;99377.97;5034974;28;20060;-67
2022/11/16 10:00:41;;;;;;;18.10;3.10;;;;;;;13.75;82.31;99374.94;5040634;28;20049;-66
2022/11/16 10:03:13;;;;;;;16.95;3.10;;;;;;;14.31;80.21;99372.41;5037691;28;20049;-66
2022/11/16 10:05:54;;;;;;;12.88;2.67;;;;;;;14.10;80.44;99355.41;5051188;28;20397;-66
2022/11/16 10:08:44;;;;;;;16.70;2.88;;;;;;;13.99;80.25;99357.19;5042860;28;20047;-66
2022/11/16 10:11:14;;;;;;;14.45;3.10;;;;;;;13.73;80.80;99357.91;5042805;28;20076;-67
2022/11/16 10:13:47;;;;;;;14.00;2.90;;;;;;;13.65;81.79;99361.69;5042242;28;20049;-67
2022/11/16 10:16:33;;;;;;;14.95;2.80;;;;;;;13.86;80.89;99375.94;5044383;28;20048;-67
2022/11/16 10:19:35;;;;;;;11.68;2.70;;;;;;;13.94;80.35;99387.94;5044797;28;20049;-67
2022/11/16 10:22:27;;;;;;;15.85;2.40;;;;;;;13.80;80.65;99388.50;5040242;28;20058;-67
2022/11/16 10:24:59;;;;;;;12.43;2.47;;;;;;;13.79;81.45;99392.41;5045154;28;20080;-66
2022/11/16 10:27:33;;;;;;;16.48;4.32;;;;;;;13.91;80.57;99388.69;5042525;28;20050;-67
2022/11/16 10:30:21;;;;;;;18.30;5.82;;;;;;;14.14;79.77;99381.19;5040374;28;20500;-67
2022/11/16 10:33:02;;;;;;;13.13;2.58;;;;;;;14.06;79.28;99379.47;5055505;28;20060;-67
2022/11/16 10:35:40;;;;;;;12.77;3.58;;;;;;;14.24;78.80;99388.88;5041697;28;20503;-67
2022/11/16 10:38:14;;;;;;;13.40;3.50;;;;;;;14.39;77.85;99379.66;5038534;28;20053;-66
2022/11/16 10:40:45;;;;;;;12.73;2.58;;;;;;;14.22;78.66;99380.94;5043289;28;20045;-67
2022/11/16 10:43:15;;;;;;;18.95;3.92;;;;;;;14.32;78.00;99376.78;5039731;28;20056;-67
2022/11/16 10:45:48;;;;;;;11.88;2.55;;;;;;;14.72;77.47;99365.13;5047735;28;20415;-70
2022/11/16 10:48:27;;;;;;;9.73;2.38;;;;;;;14.61;76.21;99373.28;5050066;28;20042;-71
2022/11/16 10:51:02;;;;;;;11.88;2.67;;;;;;;14.80;75.89;99373.19;5048148;28;20053;-69
2022/11/16 10:53:35;;;;;;;11.50;2.40;;;;;;;14.88;75.19;99349.94;5052523;28;20057;-70
2022/11/16 10:56:12;;;;;;;9.45;2.60;;;;;;;15.04;74.75;99353.34;5045731;28;20485;-71
2022/11/16 10:58:56;;;;;;;10.23;2.40;;;;;;;14.93;74.94;99349.59;5041131;28;20053;-72
2022/11/16 11:01:27;;;;;;;13.88;3.28;;;;;;;14.95;74.96;99343.69;5041336;28;20047;-70
2022/11/16 11:03:55;;;;;;;14.88;3.15;;;;;;;14.78;74.61;99338.69;5036230;28;20068;-69
2022/11/16 11:06:24;;;;;;;23.40;10.18;;;;;;;14.98;74.92;99348.47;5039925;28;20344;-70
2022/11/16 11:08:51;;;;;;;14.07;2.90;;;;;;;15.30;73.50;99341.38;5034242;28;20900;-70
2022/11/16 11:14:15;;;;;;;11.43;2.33;;;;;;;15.28;72.99;99332.63;5035885;28;20064;-71
2022/11/16 11:16:43;;;;;;;19.88;3.80;;;;;;;15.23;72.42;99333.75;5042748;28;20056;-71
2022/11/16 11:19:24;;;;;;;14.70;2.78;;;;;;;15.28;72.53;99336.19;5046248;28;20053;-71
2022/11/16 11:21:57;;;;;;;14.68;2.80;;;;;;;15.24;72.43;99323.44;5047420;28;20056;-70
2022/11/16 11:24:26;;;;;;;21.02;6.28;;;;;;;15.05;72.19;99331.94;5043349;28;20049;-69
2022/11/16 11:27:21;;;;;;;40.92;11.32;;;;;;;15.29;72.08;99323.91;5020067;28;20053;-70
2022/11/16 11:29:54;;;;;;;33.00;10.63;;;;;;;15.60;70.99;99317.16;5036644;28;20049;-69
2022/11/16 11:32:22;;;;;;;21.02;7.78;;;;;;;15.67;70.32;99309.69;5043436;28;20061;-70
2022/11/16 11:34:55;;;;;;;13.85;5.45;;;;;;;15.48;70.67;99307.13;5046741;28;20116;-69
2022/11/16 11:37:26;;;;;;;16.90;5.10;;;;;;;15.61;70.41;99308.47;5043648;28;20049;-69
2022/11/16 11:40:30;;;;;;;17.45;5.18;;;;;;;15.64;69.89;99315.22;5026290;28;20056;-70
2022/11/16 11:42:58;;;;;;;17.50;6.05;;;;;;;15.72;69.63;99314.13;5044268;28;20049;-70
2022/11/16 11:45:44;;;;;;;15.95;4.88;;;;;;;15.60;69.65;99306.84;5043639;28;20068;-70
2022/11/16 11:48:31;;;;;;;17.30;3.83;;;;;;;15.68;69.68;99314.09;5034522;28;20049;-67
2022/11/16 11:51:21;;;;;;;16.02;3.35;;;;;;;15.82;68.83;99298.72;5044735;28;20373;-69
2022/11/16 11:53:54;;;;;;;15.60;3.88;;;;;;;15.55;69.47;99298.09;5050639;28;20053;-67
2022/11/16 11:56:22;;;;;;;15.60;3.20;;;;;;;15.41;69.53;99298.72;5047917;28;20051;-68
2022/11/16 11:58:50;;;;;;;12.52;3.53;;;;;;;15.58;69.56;99297.31;5051022;28;20427;-68
2022/11/16 12:01:30;;;;;;;18.70;4.75;;;;;;;15.78;68.95;99293.94;5046678;28;20053;-70
2022/11/16 12:04:31;;;;;;;11.20;3.22;;;;;;;15.85;68.12;99289.66;5044075;28;20054;-70
2022/11/16 12:07:39;;;;;;;17.13;3.85;;;;;;;15.81;67.71;99292.41;5034192;28;20057;-72
2022/11/16 12:10:15;;;;;;;13.45;3.35;;;;;;;15.65;67.72;99289.06;5034920;28;20049;-68
2022/11/16 12:12:46;;;;;;;14.65;3.53;;;;;;;15.68;67.97;99282.75;5036350;28;20049;-68
2022/11/16 12:15:28;;;;;;;18.52;3.78;;;;;;;15.79;67.79;99275.31;5043289;28;20481;-69
2022/11/16 12:18:02;;;;;;;21.35;3.97;;;;;;;15.79;67.91;99283.66;5037789;28;20492;-73
2022/11/16 12:20:36;;;;;;;27.85;12.68;;;;;;;15.78;67.39;99280.06;5042940;28;20060;-69
2022/11/16 12:23:09;;;;;;;23.50;4.20;;;;;;;15.83;67.34;99267.81;5051780;28;20056;-70
2022/11/16 12:25:44;;;;;;;13.85;3.60;;;;;;;15.92;67.53;99276.63;5042436;28;20068;-69
2022/11/16 12:28:36;;;;;;;16.95;3.88;;;;;;;15.98;66.89;99268.72;5040493;28;20064;-69
2022/11/16 12:31:19;;;;;;;18.42;3.92;;;;;;;15.91;67.09;99263.13;5035824;28;20048;-68
2022/11/16 12:33:49;;;;;;;14.18;3.75;;;;;;;15.87;67.02;99262.28;5031826;28;20408;-68
2022/11/16 12:36:35;;;;;;;16.17;3.78;;;;;;;15.58;68.43;99266.78;5034105;28;20063;-68
2022/11/16 12:39:27;;;;;;;20.40;3.90;;;;;;;15.65;67.74;99258.53;5036722;28;20511;-68
2022/11/16 12:42:04;;;;;;;22.73;3.90;;;;;;;15.79;67.40;99251.13;5038316;28;20048;-68
2022/11/16 12:44:40;;;;;;;13.93;3.58;;;;;;;15.88;67.71;99241.69;5035186;28;20064;-68